createdAt,value
2018-09-11T00:01:30.774Z,73.68
2018-09-11T00:03:59.012Z,74.62
2018-09-11T00:06:27.235Z,74.30
2018-09-11T00:08:55.486Z,73.97
2018-09-11T00:11:23.715Z,73.25
2018-09-11T00:13:52.066Z,74.02
2018-09-11T00:16:20.339Z,74.18
2018-09-11T00:18:48.581Z,74.34
2018-09-11T00:21:16.853Z,74.22
2018-09-11T00:23:45.114Z,74.67
2018-09-11T00:26:13.345Z,74.71
2018-09-11T00:28:41.597Z,74.30
2018-09-11T00:31:09.834Z,74.10
2018-09-11T00:33:38.055Z,74.53
2018-09-11T00:36:06.291Z,74.55
2018-09-11T00:38:34.528Z,75.37
2018-09-11T00:41:02.763Z,75.92
2018-09-11T00:43:30.995Z,76.73
2018-09-11T00:45:59.206Z,76.64
2018-09-11T00:48:27.437Z,76.21
2018-09-11T00:50:55.696Z,76.67
2018-09-11T00:53:23.910Z,77.19
2018-09-11T00:55:52.126Z,77.92
2018-09-11T00:58:20.346Z,77.29
2018-09-11T01:00:48.606Z,77.04
2018-09-11T01:03:16.884Z,77.05
2018-09-11T01:05:45.139Z,78.57
2018-09-11T01:08:13.391Z,78.01
2018-09-11T01:10:41.622Z,79.06
2018-09-11T01:13:09.841Z,78.95
2018-09-11T01:15:38.119Z,80.21
2018-09-11T01:18:06.398Z,79.75
2018-09-11T01:20:34.636Z,80.45
2018-09-11T01:23:02.896Z,78.97
2018-09-11T01:25:31.155Z,79.66
2018-09-11T01:27:59.426Z,79.43
2018-09-11T01:30:27.637Z,77.97
2018-09-11T01:32:55.893Z,77.89
2018-09-11T01:35:24.101Z,77.77
2018-09-11T01:37:52.334Z,79.04
2018-09-11T01:40:20.562Z,77.99
2018-09-11T01:42:48.826Z,78.05
2018-09-11T01:45:17.050Z,77.78
2018-09-11T01:47:45.269Z,77.66
2018-09-11T01:50:13.518Z,78.27
2018-09-11T01:52:41.734Z,78.76
2018-09-11T01:55:09.984Z,78.88
2018-09-11T01:57:38.210Z,78.37
2018-09-11T02:00:11.029Z,79.60
2018-09-11T02:02:39.247Z,79.20
2018-09-11T02:05:07.499Z,78.95
2018-09-11T02:07:35.745Z,78.56
2018-09-11T02:10:04.014Z,79.68
2018-09-11T02:12:32.230Z,80.03
2018-09-11T02:15:00.474Z,79.99
2018-09-11T02:17:28.717Z,80.53
2018-09-11T02:19:56.958Z,81.59
2018-09-11T02:22:25.165Z,82.15
2018-09-11T02:24:53.411Z,83.41
2018-09-11T02:27:21.637Z,83.41
2018-09-11T02:29:49.881Z,83.10
2018-09-11T02:32:18.120Z,82.36
2018-09-11T02:34:46.347Z,83.65
2018-09-11T02:37:14.576Z,82.96
2018-09-11T02:39:42.827Z,82.44
2018-09-11T02:42:11.061Z,81.77
2018-09-11T02:44:39.294Z,81.53
2018-09-11T02:47:07.562Z,80.91
2018-09-11T02:49:35.790Z,80.40
2018-09-11T02:52:04.039Z,80.39
2018-09-11T02:54:32.262Z,80.68
2018-09-11T02:57:00.475Z,80.72
2018-09-11T02:59:28.702Z,80.03
2018-09-11T03:01:56.923Z,81.59
2018-09-11T03:04:25.247Z,81.38
2018-09-11T03:06:53.544Z,80.20
2018-09-11T03:09:21.770Z,81.05
2018-09-11T03:11:49.989Z,80.59
2018-09-11T03:14:18.237Z,81.07
2018-09-11T03:16:46.484Z,81.50
2018-09-11T03:19:14.709Z,83.07
2018-09-11T03:21:42.930Z,81.62
2018-09-11T03:24:11.162Z,81.14
2018-09-11T03:26:39.487Z,82.73
2018-09-11T03:29:07.722Z,81.47
2018-09-11T03:31:35.934Z,80.58
2018-09-11T03:34:04.199Z,80.09
2018-09-11T03:36:32.419Z,80.97
2018-09-11T03:39:00.666Z,81.55
2018-09-11T03:41:28.905Z,81.26
2018-09-11T03:43:57.147Z,80.18
2018-09-11T03:46:25.374Z,80.76
2018-09-11T03:48:53.645Z,81.98
2018-09-11T03:51:21.861Z,81.78
2018-09-11T03:53:50.090Z,81.53
2018-09-11T03:56:18.320Z,83.14
2018-09-11T03:58:46.568Z,82.50
2018-09-11T04:01:14.793Z,81.72
2018-09-11T04:03:43.002Z,82.19
2018-09-11T04:06:11.244Z,82.46
2018-09-11T04:08:39.485Z,82.29
2018-09-11T04:11:07.713Z,81.82
2018-09-11T04:13:35.939Z,83.11
2018-09-11T04:16:04.193Z,82.34
2018-09-11T04:18:32.433Z,81.53
2018-09-11T04:21:00.654Z,81.48
2018-09-11T04:23:28.877Z,81.27
2018-09-11T04:25:57.114Z,82.10
2018-09-11T04:28:25.383Z,82.06
2018-09-11T04:30:53.631Z,81.10
2018-09-11T04:33:21.852Z,80.74
2018-09-11T04:35:50.070Z,81.26
2018-09-11T04:38:18.346Z,80.93
2018-09-11T04:40:46.598Z,80.85
2018-09-11T04:43:14.848Z,81.16
2018-09-11T04:45:43.077Z,80.35
2018-09-11T04:48:11.307Z,81.91
2018-09-11T04:50:39.535Z,82.66
2018-09-11T04:53:07.777Z,82.85
2018-09-11T04:55:36.086Z,82.00
2018-09-11T04:58:04.298Z,82.37
2018-09-11T05:00:32.532Z,81.35
2018-09-11T05:03:00.758Z,82.22
2018-09-11T05:05:29.003Z,83.19
2018-09-11T05:07:57.257Z,81.37
2018-09-11T05:10:25.486Z,81.67
2018-09-11T05:12:53.709Z,81.85
2018-09-11T05:15:21.926Z,81.85
2018-09-11T05:17:50.170Z,83.16
2018-09-11T05:20:18.402Z,82.88
2018-09-11T05:22:46.617Z,83.37
2018-09-11T05:25:14.838Z,83.76
2018-09-11T05:27:43.086Z,83.32
2018-09-11T05:30:11.337Z,83.24
2018-09-11T05:32:39.558Z,84.35
2018-09-11T05:35:07.827Z,83.62
2018-09-11T05:37:36.040Z,83.37
2018-09-11T05:40:04.318Z,83.31
2018-09-11T05:42:32.547Z,83.59
2018-09-11T05:45:00.992Z,82.90
2018-09-11T05:47:29.209Z,82.68
2018-09-11T05:49:57.475Z,82.78
2018-09-11T05:52:25.702Z,82.50
2018-09-11T05:54:53.961Z,82.89
2018-09-11T05:57:22.186Z,83.01
2018-09-11T05:59:50.429Z,82.18
2018-09-11T06:02:18.681Z,83.36
2018-09-11T06:04:46.927Z,83.41
2018-09-11T06:07:15.159Z,83.43
2018-09-11T06:09:43.408Z,83.25
2018-09-11T06:12:11.633Z,82.68
2018-09-11T06:14:40.059Z,82.45
2018-09-11T06:17:08.306Z,82.45
2018-09-11T06:19:36.529Z,82.99
2018-09-11T06:22:04.770Z,83.09
2018-09-11T06:24:33.000Z,83.00
2018-09-11T06:27:01.235Z,83.12
2018-09-11T06:29:29.471Z,83.13
2018-09-11T06:31:57.768Z,83.20
2018-09-11T06:34:25.986Z,82.88
2018-09-11T06:36:54.230Z,82.17
2018-09-11T06:39:22.446Z,82.08
2018-09-11T06:41:50.686Z,81.47
2018-09-11T06:44:18.923Z,81.20
2018-09-11T06:46:48.208Z,80.87
2018-09-11T06:49:16.526Z,79.63
2018-09-11T06:51:44.801Z,79.71
2018-09-11T06:54:13.057Z,79.80
2018-09-11T06:56:41.462Z,78.72
2018-09-11T06:59:09.797Z,78.15
2018-09-11T07:01:37.939Z,76.14
2018-09-11T07:04:06.690Z,76.55
2018-09-11T07:06:34.901Z,74.27
2018-09-11T07:09:03.378Z,73.84
2018-09-11T07:11:31.598Z,72.29
2018-09-11T07:13:59.823Z,72.70
2018-09-11T07:16:28.029Z,70.89
2018-09-11T07:18:56.246Z,69.21
2018-09-11T07:21:24.465Z,67.74
2018-09-11T07:23:52.697Z,69.61
2018-09-11T07:26:20.979Z,68.27
2018-09-11T07:28:49.299Z,67.90
2018-09-11T07:31:17.588Z,65.38
2018-09-11T07:33:45.764Z,65.61
2018-09-11T07:36:14.335Z,64.22
2018-09-11T07:38:42.542Z,63.21
2018-09-11T07:41:11.285Z,63.25
2018-09-11T07:43:39.589Z,63.70
2018-09-11T07:46:07.834Z,63.96
2018-09-11T07:48:36.246Z,63.12
2018-09-11T07:51:04.513Z,63.22
2018-09-11T07:53:32.747Z,62.04
2018-09-11T07:56:00.997Z,62.62
2018-09-11T07:58:29.215Z,62.25
2018-09-11T08:00:57.441Z,61.58
2018-09-11T08:03:25.668Z,60.61
2018-09-11T08:05:53.929Z,59.90
2018-09-11T08:08:22.159Z,60.81
2018-09-11T08:10:50.422Z,59.92
2018-09-11T08:13:18.613Z,60.67
2018-09-11T08:15:46.869Z,59.92
2018-09-11T08:18:15.082Z,59.74
2018-09-11T08:20:43.310Z,60.56
2018-09-11T08:23:11.548Z,57.71
2018-09-11T08:25:39.767Z,56.98
2018-09-11T08:28:07.998Z,58.22
2018-09-11T08:30:36.224Z,58.33
2018-09-11T08:33:04.460Z,57.85
2018-09-11T08:35:32.742Z,57.67
2018-09-11T08:38:01.128Z,57.33
2018-09-11T08:40:29.358Z,55.92
2018-09-11T08:42:57.591Z,56.03
2018-09-11T08:45:25.837Z,56.31
2018-09-11T08:47:54.051Z,56.31
2018-09-11T08:50:22.281Z,54.80
2018-09-11T08:52:50.565Z,53.56
2018-09-11T08:55:18.722Z,52.66
2018-09-11T08:57:46.942Z,53.48
2018-09-11T09:00:15.174Z,53.60
2018-09-11T09:02:43.405Z,53.79
2018-09-11T09:05:11.634Z,53.06
2018-09-11T09:07:39.858Z,53.49
2018-09-11T09:10:08.170Z,52.62
2018-09-11T09:12:36.374Z,52.69
2018-09-11T09:15:04.666Z,52.90
2018-09-11T09:17:32.883Z,52.65
2018-09-11T09:20:01.163Z,52.85
2018-09-11T09:22:29.382Z,52.12
2018-09-11T09:24:57.607Z,51.77
2018-09-11T09:27:25.869Z,51.60
2018-09-11T09:29:54.063Z,51.36
2018-09-11T09:32:22.291Z,52.43
2018-09-11T09:34:50.538Z,52.53
2018-09-11T09:37:18.802Z,52.84
2018-09-11T09:39:47.026Z,51.33
2018-09-11T09:42:15.271Z,52.43
2018-09-11T09:44:43.498Z,51.89
2018-09-11T09:47:11.730Z,52.45
2018-09-11T09:49:39.941Z,52.04
2018-09-11T09:52:08.174Z,50.30
2018-09-11T09:54:36.433Z,47.46
2018-09-11T09:57:04.674Z,47.54
2018-09-11T09:59:32.930Z,48.52
2018-09-11T10:02:03.866Z,46.94
2018-09-11T10:04:32.455Z,46.53
2018-09-11T10:07:00.754Z,46.69
2018-09-11T10:09:28.989Z,45.90
2018-09-11T10:11:57.223Z,46.00
2018-09-11T10:14:25.447Z,45.72
2018-09-11T10:16:53.672Z,45.45
2018-09-11T10:19:21.894Z,44.02
2018-09-11T10:21:50.330Z,44.59
2018-09-11T10:24:18.555Z,44.91
2018-09-11T10:26:46.779Z,44.20
2018-09-11T10:29:14.995Z,45.00
2018-09-11T10:31:43.230Z,43.91
2018-09-11T10:34:11.571Z,44.90
2018-09-11T10:36:39.799Z,44.59
2018-09-11T10:39:08.606Z,44.45
2018-09-11T10:41:36.892Z,43.46
2018-09-11T10:44:05.130Z,43.01
2018-09-11T10:46:33.539Z,43.45
2018-09-11T10:49:01.759Z,42.83
2018-09-11T10:51:30.039Z,43.77
2018-09-11T10:53:58.270Z,43.51
2018-09-11T10:56:26.529Z,42.78
2018-09-11T10:58:54.744Z,43.17
2018-09-11T11:01:23.136Z,42.80
2018-09-11T11:03:51.394Z,42.71
2018-09-11T11:06:19.657Z,42.59
2018-09-11T11:08:47.842Z,43.08
2018-09-11T11:11:16.094Z,42.57
2018-09-11T11:13:44.322Z,41.78
2018-09-11T11:16:12.542Z,42.14
2018-09-11T11:18:40.780Z,41.84
2018-09-11T11:21:09.019Z,40.60
2018-09-11T11:23:37.233Z,40.24
2018-09-11T11:26:05.482Z,40.15
2018-09-11T11:28:33.719Z,39.49
2018-09-11T11:31:01.960Z,39.30
2018-09-11T11:33:30.170Z,39.60
2018-09-11T11:35:58.443Z,40.53
2018-09-11T11:38:26.646Z,40.60
2018-09-11T11:40:54.870Z,39.22
2018-09-11T11:43:23.104Z,38.68
2018-09-11T11:45:51.815Z,38.62
2018-09-11T11:48:20.116Z,37.78
2018-09-11T11:50:48.320Z,38.08
2018-09-11T11:53:16.537Z,36.87
2018-09-11T11:55:44.777Z,37.57
2018-09-11T11:58:12.986Z,37.94
2018-09-11T12:00:41.258Z,36.69
2018-09-11T12:03:09.491Z,36.63
2018-09-11T12:05:37.736Z,36.05
2018-09-11T12:08:05.998Z,36.59
2018-09-11T12:10:34.256Z,35.20
2018-09-11T12:13:02.514Z,35.90
2018-09-11T12:15:30.766Z,34.93
2018-09-11T12:17:58.997Z,35.08
2018-09-11T12:20:27.225Z,36.61
2018-09-11T12:22:55.462Z,35.68
2018-09-11T12:25:23.690Z,35.30
2018-09-11T12:27:51.923Z,34.59
2018-09-11T12:30:20.300Z,32.67
2018-09-11T12:32:48.514Z,33.71
2018-09-11T12:35:16.740Z,34.41
2018-09-11T12:37:44.954Z,34.02
2018-09-11T12:40:13.201Z,34.23
2018-09-11T12:42:41.485Z,35.45
2018-09-11T12:45:09.721Z,33.48
2018-09-11T12:47:38.123Z,34.29
2018-09-11T12:50:06.167Z,34.14
2018-09-11T12:52:34.395Z,33.50
2018-09-11T12:55:02.630Z,33.44
2018-09-11T12:57:30.891Z,33.01
2018-09-11T12:59:59.133Z,32.62
2018-09-11T13:02:27.465Z,32.19
2018-09-11T13:04:55.590Z,32.51
2018-09-11T13:07:23.830Z,33.13
2018-09-11T13:09:52.056Z,32.51
2018-09-11T13:12:20.289Z,31.20
2018-09-11T13:14:48.502Z,31.43
2018-09-11T13:17:16.747Z,30.95
2018-09-11T13:19:44.978Z,30.46
2018-09-11T13:22:13.209Z,30.53
2018-09-11T13:24:41.458Z,30.65
2018-09-11T13:27:09.739Z,31.11
2018-09-11T13:29:37.969Z,32.11
2018-09-11T13:32:06.254Z,31.16
2018-09-11T13:34:34.486Z,31.34
2018-09-11T13:37:02.705Z,30.44
2018-09-11T13:39:30.925Z,30.66
2018-09-11T13:41:59.214Z,30.83
2018-09-11T13:44:27.426Z,30.45
2018-09-11T13:46:55.689Z,28.63
2018-09-11T13:49:23.875Z,28.58
2018-09-11T13:51:52.114Z,28.58
2018-09-11T13:54:20.354Z,28.93
2018-09-11T13:56:48.607Z,28.78
2018-09-11T13:59:16.868Z,30.01
2018-09-11T14:01:45.090Z,28.92
2018-09-11T14:04:13.350Z,28.26
2018-09-11T14:06:41.578Z,28.29
2018-09-11T14:09:13.267Z,28.54
2018-09-11T14:11:41.879Z,29.28
2018-09-11T14:14:10.334Z,28.93
2018-09-11T14:16:38.561Z,29.42
2018-09-11T14:19:07.043Z,28.42
2018-09-11T14:21:35.319Z,27.69
2018-09-11T14:24:03.554Z,28.73
2018-09-11T14:26:32.122Z,28.75
2018-09-11T14:29:00.430Z,28.88
2018-09-11T14:31:28.669Z,29.52
2018-09-11T14:33:57.003Z,28.21
2018-09-11T14:36:25.243Z,28.08
2018-09-11T14:38:53.462Z,27.45
2018-09-11T14:41:21.686Z,28.84
2018-09-11T14:43:49.935Z,28.41
2018-09-11T14:46:18.158Z,28.21
2018-09-11T14:48:46.445Z,29.11
2018-09-11T14:51:14.670Z,28.96
2018-09-11T14:53:42.939Z,28.46
2018-09-11T14:56:11.151Z,28.91
2018-09-11T14:58:39.407Z,27.77
2018-09-11T15:01:07.655Z,28.28
2018-09-11T15:03:35.933Z,28.22
2018-09-11T15:06:04.162Z,27.99
2018-09-11T15:08:32.441Z,27.34
2018-09-11T15:11:00.653Z,27.48
2018-09-11T15:13:28.882Z,27.71
2018-09-11T15:15:57.118Z,27.65
2018-09-11T15:18:25.346Z,28.45
2018-09-11T15:20:53.575Z,28.94
2018-09-11T15:23:21.820Z,28.20
2018-09-11T15:25:50.063Z,27.70
2018-09-11T15:28:18.294Z,29.37
2018-09-11T15:30:46.579Z,28.01
2018-09-11T15:33:14.807Z,28.15
2018-09-11T15:35:43.034Z,28.04
2018-09-11T15:38:11.263Z,28.66
2018-09-11T15:40:39.536Z,28.51
2018-09-11T15:43:07.789Z,28.47
2018-09-11T15:45:36.014Z,27.52
2018-09-11T15:48:04.259Z,29.01
2018-09-11T15:50:32.470Z,27.78
2018-09-11T15:53:00.735Z,27.49
2018-09-11T15:55:28.959Z,28.79
2018-09-11T15:57:57.194Z,27.57
2018-09-11T16:00:25.521Z,27.77
2018-09-11T16:02:53.756Z,28.45
2018-09-11T16:05:21.962Z,28.25
2018-09-11T16:07:50.200Z,28.17
2018-09-11T16:10:18.430Z,27.04
2018-09-11T16:12:46.650Z,28.09
2018-09-11T16:15:14.867Z,28.65
2018-09-11T16:17:43.096Z,27.32
2018-09-11T16:20:11.320Z,27.89
2018-09-11T16:22:39.541Z,28.83
2018-09-11T16:25:07.785Z,27.77
2018-09-11T16:27:36.061Z,28.01
2018-09-11T16:30:04.496Z,29.08
2018-09-11T16:32:32.722Z,29.81
2018-09-11T16:35:00.934Z,28.70
2018-09-11T16:37:29.162Z,29.63
2018-09-11T16:39:57.428Z,29.64
2018-09-11T16:42:25.636Z,29.81
2018-09-11T16:44:53.846Z,30.49
2018-09-11T16:47:22.084Z,30.68
2018-09-11T16:49:50.299Z,30.50
2018-09-11T16:52:18.514Z,31.43
2018-09-11T16:54:47.806Z,32.33
2018-09-11T16:57:16.096Z,32.76
2018-09-11T16:59:44.358Z,32.31
2018-09-11T17:02:12.734Z,33.23
2018-09-11T17:04:40.842Z,32.92
2018-09-11T17:07:09.078Z,32.84
2018-09-11T17:09:37.298Z,33.60
2018-09-11T17:12:05.626Z,34.17
2018-09-11T17:14:33.901Z,33.62
2018-09-11T17:17:02.142Z,34.13
2018-09-11T17:19:30.383Z,34.72
2018-09-11T17:21:58.630Z,33.93
2018-09-11T17:24:26.870Z,35.18
2018-09-11T17:26:55.114Z,34.50
2018-09-11T17:29:23.350Z,35.23
2018-09-11T17:31:51.586Z,36.19
2018-09-11T17:34:19.797Z,36.13
2018-09-11T17:36:48.043Z,35.08
2018-09-11T17:39:16.382Z,35.62
2018-09-11T17:41:44.601Z,36.50
2018-09-11T17:44:12.898Z,36.37
2018-09-11T17:46:41.086Z,37.61
2018-09-11T17:49:09.383Z,37.19
2018-09-11T17:51:37.548Z,36.86
2018-09-11T17:54:05.880Z,37.14
2018-09-11T17:56:34.104Z,37.13
2018-09-11T17:59:02.403Z,37.37
2018-09-11T18:01:30.644Z,37.53
2018-09-11T18:03:59.275Z,37.70
2018-09-11T18:06:27.571Z,38.94
2018-09-11T18:08:56.119Z,38.79
2018-09-11T18:11:24.346Z,38.89
2018-09-11T18:13:52.649Z,38.79
2018-09-11T18:16:20.869Z,38.87
2018-09-11T18:18:49.105Z,38.93
2018-09-11T18:21:17.342Z,39.73
2018-09-11T18:23:45.609Z,40.10
2018-09-11T18:26:13.880Z,39.46
2018-09-11T18:28:42.959Z,39.81
2018-09-11T18:31:11.223Z,40.36
2018-09-11T18:33:39.574Z,40.89
2018-09-11T18:36:08.227Z,40.54
2018-09-11T18:38:36.474Z,40.84
2018-09-11T18:41:04.684Z,40.90
2018-09-11T18:43:32.911Z,41.14
2018-09-11T18:46:01.137Z,41.72
2018-09-11T18:48:29.383Z,41.36
2018-09-11T18:50:57.619Z,41.73
2018-09-11T18:53:25.922Z,42.51
2018-09-11T18:55:54.178Z,42.38
2018-09-11T18:58:22.465Z,43.76
2018-09-11T19:00:50.715Z,43.69
2018-09-11T19:03:18.951Z,43.73
2018-09-11T19:05:47.166Z,44.28
2018-09-11T19:08:15.421Z,44.72
2018-09-11T19:10:43.649Z,45.95
2018-09-11T19:13:11.906Z,45.40
2018-09-11T19:15:40.154Z,46.40
2018-09-11T19:18:08.382Z,46.71
2018-09-11T19:20:36.624Z,48.46
2018-09-11T19:23:04.842Z,48.27
2018-09-11T19:25:33.114Z,49.19
2018-09-11T19:28:03.067Z,47.98
2018-09-11T19:30:31.297Z,48.51
2018-09-11T19:32:59.558Z,49.40
2018-09-11T19:35:27.798Z,49.35
2018-09-11T19:37:56.058Z,48.61
2018-09-11T19:40:24.274Z,48.73
2018-09-11T19:42:52.582Z,49.65
2018-09-11T19:45:20.795Z,49.76
2018-09-11T19:47:50.171Z,49.29
2018-09-11T19:50:18.445Z,49.17
2018-09-11T19:52:46.634Z,49.41
2018-09-11T19:55:14.871Z,49.78
2018-09-11T19:57:43.123Z,49.60
2018-09-11T20:00:11.396Z,49.92
2018-09-11T20:02:39.614Z,50.13
2018-09-11T20:05:07.851Z,50.19
2018-09-11T20:07:36.066Z,49.64
2018-09-11T20:10:04.366Z,50.94
2018-09-11T20:12:32.595Z,51.39
2018-09-11T20:15:01.682Z,50.87
2018-09-11T20:17:29.915Z,51.26
2018-09-11T20:19:58.160Z,50.58
2018-09-11T20:22:26.378Z,50.11
2018-09-11T20:24:54.595Z,50.60
2018-09-11T20:27:22.842Z,51.42
2018-09-11T20:29:51.067Z,50.56
2018-09-11T20:32:19.321Z,51.32
2018-09-11T20:34:47.566Z,51.14
2018-09-11T20:37:15.825Z,51.49
2018-09-11T20:39:44.025Z,51.45
2018-09-11T20:42:12.242Z,53.08
2018-09-11T20:44:40.527Z,52.42
2018-09-11T20:47:08.825Z,53.72
2018-09-11T20:49:37.067Z,52.66
2018-09-11T20:52:05.302Z,54.01
2018-09-11T20:54:33.535Z,54.36
2018-09-11T20:57:01.754Z,54.00
2018-09-11T20:59:29.989Z,54.41
2018-09-11T21:01:58.274Z,54.53
2018-09-11T21:04:26.510Z,55.90
2018-09-11T21:06:54.738Z,55.74
2018-09-11T21:09:22.970Z,55.70
2018-09-11T21:11:51.187Z,55.40
2018-09-11T21:14:19.423Z,56.28
2018-09-11T21:16:47.635Z,55.84
2018-09-11T21:19:15.858Z,56.42
2018-09-11T21:21:44.089Z,54.98
2018-09-11T21:24:12.331Z,55.38
2018-09-11T21:26:40.556Z,55.60
2018-09-11T21:29:08.778Z,56.00
2018-09-11T21:31:37.018Z,55.47
2018-09-11T21:34:05.241Z,55.67
2018-09-11T21:36:33.470Z,55.84
2018-09-11T21:39:01.702Z,56.37
2018-09-11T21:41:30.033Z,56.87
2018-09-11T21:43:58.256Z,57.11
2018-09-11T21:46:26.484Z,56.37
2018-09-11T21:48:54.694Z,56.58
2018-09-11T21:51:22.947Z,56.93
2018-09-11T21:53:51.166Z,56.75
2018-09-11T21:56:19.373Z,56.55
2018-09-11T21:58:47.622Z,57.03
2018-09-11T22:01:21.143Z,57.06
2018-09-11T22:03:49.372Z,56.74
2018-09-11T22:06:17.579Z,56.90
2018-09-11T22:08:45.806Z,57.65
2018-09-11T22:11:14.031Z,57.45
2018-09-11T22:13:42.254Z,57.76
2018-09-11T22:16:10.498Z,57.21
2018-09-11T22:18:38.718Z,58.41
2018-09-11T22:21:06.974Z,58.53
2018-09-11T22:23:35.198Z,58.17
2018-09-11T22:26:03.405Z,58.45
2018-09-11T22:28:31.633Z,58.72
2018-09-11T22:30:59.873Z,57.95
2018-09-11T22:33:28.097Z,58.41
2018-09-11T22:35:56.317Z,59.07
2018-09-11T22:38:24.558Z,59.74
2018-09-11T22:40:52.773Z,59.95
2018-09-11T22:43:20.995Z,59.05
2018-09-11T22:45:49.239Z,60.10
2018-09-11T22:48:17.499Z,59.56
2018-09-11T22:50:45.744Z,59.80
2018-09-11T22:53:13.965Z,60.19
2018-09-11T22:55:42.207Z,59.98
2018-09-11T22:58:10.416Z,59.53
2018-09-11T23:00:38.671Z,60.26
2018-09-11T23:03:07.035Z,60.86
2018-09-11T23:05:35.275Z,60.04
2018-09-11T23:08:03.482Z,60.65
2018-09-11T23:10:31.714Z,61.00
2018-09-11T23:12:59.937Z,60.87
2018-09-11T23:15:28.154Z,61.34
2018-09-11T23:17:56.380Z,61.89
2018-09-11T23:20:24.602Z,60.94
2018-09-11T23:22:52.831Z,62.01
2018-09-11T23:25:21.072Z,61.81
2018-09-11T23:27:49.313Z,61.60
2018-09-11T23:30:17.535Z,61.67
2018-09-11T23:32:45.762Z,61.40
2018-09-11T23:35:13.989Z,61.06
2018-09-11T23:37:42.217Z,62.58
2018-09-11T23:40:10.483Z,62.86
2018-09-11T23:42:38.720Z,61.66
2018-09-11T23:45:06.959Z,61.39
2018-09-11T23:47:35.171Z,61.57
2018-09-11T23:50:03.458Z,62.62
2018-09-11T23:52:31.687Z,62.42
2018-09-11T23:54:59.922Z,62.61
2018-09-11T23:57:28.138Z,62.19
2018-09-11T23:59:56.375Z,63.43
